Time;durP1;ratioP1;P1;durP2;ratioP2;P2;SDS_P1;SDS_P2;PMS_P1;PMS_P2;Temp;Humidity;BMP_temperature;BMP_pressure;BME280_temperature;BME280_humidity;BME280_pressure;Samples;Min_cycle;Max_cycle;Signal;HPM_P1;HPM_P2
2023/12/20 00:01:06;;;;;;;8.90;3.60;;;;;;;5.25;65.18;99436.13;5019223;28;20287;-88
2023/12/20 00:03:33;;;;;;;9.73;4.33;;;;;;;5.27;65.51;99434.34;5036284;28;20232;-88
2023/12/20 00:06:00;;;;;;;8.47;4.07;;;;;;;5.23;66.03;99438.78;5018095;28;20177;-88
2023/12/20 00:08:25;;;;;;;8.03;3.93;;;;;;;5.34;65.73;99433.31;5018705;28;20174;-87
2023/12/20 00:10:52;;;;;;;6.13;3.37;;;;;;;5.31;65.61;99431.63;5018683;28;20180;-88
2023/12/20 00:13:18;;;;;;;5.13;2.50;;;;;;;5.24;65.68;99424.06;5035937;28;20810;-88
2023/12/20 00:15:44;;;;;;;4.70;2.40;;;;;;;5.33;65.36;99418.59;5018528;28;20193;-88
2023/12/20 00:18:11;;;;;;;4.97;2.30;;;;;;;5.22;65.78;99426.66;5036030;28;20246;-88
2023/12/20 00:20:38;;;;;;;4.00;2.17;;;;;;;5.18;66.29;99425.06;5018746;28;20535;-88
2023/12/20 00:23:05;;;;;;;4.27;2.80;;;;;;;5.29;66.12;99422.19;5036167;28;20189;-88
2023/12/20 00:25:31;;;;;;;5.90;2.57;;;;;;;5.30;66.07;99419.53;5035858;28;20614;-88
2023/12/20 00:27:56;;;;;;;4.30;2.43;;;;;;;5.32;66.46;99417.72;5017854;28;20187;-88
2023/12/20 00:30:23;;;;;;;4.53;1.97;;;;;;;5.29;65.95;99417.81;5035826;28;20193;-88
2023/12/20 00:32:50;;;;;;;4.53;2.17;;;;;;;5.35;65.99;99417.66;5018283;28;20170;-88
2023/12/20 00:35:16;;;;;;;4.80;2.13;;;;;;;5.36;66.21;99424.56;5035699;28;20284;-88
2023/12/20 00:37:43;;;;;;;7.53;2.93;;;;;;;5.37;65.98;99408.06;5035857;28;20200;-88
2023/12/20 00:40:10;;;;;;;5.13;2.40;;;;;;;5.32;66.18;99411.72;5035469;28;20240;-88
2023/12/20 00:42:37;;;;;;;5.17;2.53;;;;;;;5.35;65.67;99412.47;5018070;28;20623;-88
2023/12/20 00:45:04;;;;;;;13.80;3.40;;;;;;;5.29;65.91;99412.63;5035532;28;20633;-88
2023/12/20 00:47:31;;;;;;;9.53;2.93;;;;;;;5.30;65.86;99414.34;5016803;28;20681;-88
2023/12/20 00:49:58;;;;;;;9.57;3.20;;;;;;;5.35;65.78;99415.06;5017910;28;20191;-88
2023/12/20 00:52:25;;;;;;;7.50;3.67;;;;;;;5.40;65.62;99409.72;5034800;28;20170;-88
2023/12/20 00:54:52;;;;;;;6.43;2.83;;;;;;;5.35;65.33;99401.19;5035485;28;20182;-88
2023/12/20 00:57:18;;;;;;;6.80;3.63;;;;;;;5.25;65.38;99403.22;5017778;28;20660;-88
2023/12/20 00:59:45;;;;;;;6.33;3.00;;;;;;;5.23;65.37;99397.22;5017765;28;20185;-88
2023/12/20 01:02:12;;;;;;;9.87;4.13;;;;;;;5.23;64.94;99399.81;5035152;28;20193;-88
2023/12/20 01:04:39;;;;;;;11.33;4.77;;;;;;;5.24;64.80;99393.69;5017962;28;20197;-88
2023/12/20 01:07:06;;;;;;;13.13;7.13;;;;;;;5.24;64.57;99390.28;5017645;28;20255;-88
2023/12/20 01:09:32;;;;;;;15.43;6.40;;;;;;;5.13;64.73;99389.69;5017636;28;20188;-88
2023/12/20 01:11:57;;;;;;;9.93;4.43;;;;;;;5.19;64.64;99384.34;5017183;28;20639;-88
2023/12/20 01:14:24;;;;;;;10.17;5.23;;;;;;;5.27;64.19;99382.38;5017575;28;20207;-88
2023/12/20 01:16:51;;;;;;;12.10;4.77;;;;;;;5.29;64.44;99378.81;5017122;28;20182;-88
2023/12/20 01:19:18;;;;;;;16.10;5.77;;;;;;;5.28;64.25;99374.53;5034893;28;20181;-88
2023/12/20 01:21:44;;;;;;;13.17;6.43;;;;;;;5.23;64.22;99371.22;5017640;28;20272;-88
2023/12/20 01:24:11;;;;;;;16.27;5.23;;;;;;;5.11;64.29;99376.72;5017760;28;20195;-88
2023/12/20 01:26:38;;;;;;;15.27;5.80;;;;;;;5.01;64.58;99364.88;5018350;28;20178;-88
2023/12/20 01:29:05;;;;;;;15.97;6.17;;;;;;;4.99;64.37;99366.69;5017538;28;20186;-88
2023/12/20 01:31:31;;;;;;;12.43;6.27;;;;;;;5.02;64.73;99374.41;5034605;28;20181;-88
2023/12/20 01:33:58;;;;;;;12.57;6.23;;;;;;;5.05;64.18;99361.31;5034836;28;20249;-88
2023/12/20 01:36:25;;;;;;;16.97;7.00;;;;;;;4.96;64.33;99369.34;5035342;28;20189;-88
2023/12/20 01:38:51;;;;;;;16.53;8.13;;;;;;;5.00;64.44;99363.19;5016948;28;20676;-88
2023/12/20 01:41:16;;;;;;;16.87;7.83;;;;;;;5.06;64.50;99355.22;5017262;28;20235;-88
2023/12/20 01:43:43;;;;;;;25.90;8.17;;;;;;;5.08;64.22;99350.00;5017265;28;20200;-88
2023/12/20 01:46:10;;;;;;;21.90;8.23;;;;;;;5.04;64.48;99348.38;5034060;28;20182;-88
2023/12/20 01:48:37;;;;;;;20.13;7.30;;;;;;;5.02;64.76;99348.41;5016889;28;20174;-88
2023/12/20 01:51:04;;;;;;;24.00;8.87;;;;;;;4.92;64.60;99342.63;5033710;28;20189;-88
2023/12/20 01:53:32;;;;;;;16.43;6.20;;;;;;;4.87;64.71;99341.03;5034173;28;20629;-88
2023/12/20 01:56:00;;;;;;;16.10;6.83;;;;;;;4.93;64.96;99346.91;5034151;28;20193;-88
2023/12/20 01:58:27;;;;;;;14.80;7.97;;;;;;;5.06;64.52;99337.03;5034302;28;20675;-89
2023/12/20 02:00:55;;;;;;;21.77;7.93;;;;;;;5.01;64.62;99336.31;5033823;28;20629;-89
2023/12/20 02:03:22;;;;;;;18.07;7.47;;;;;;;4.94;65.14;99330.44;5034282;28;20186;-88
2023/12/20 02:05:48;;;;;;;11.97;5.13;;;;;;;4.86;64.47;99332.38;5017386;28;20182;-88
2023/12/20 02:08:15;;;;;;;13.30;6.30;;;;;;;4.74;65.04;99319.72;5033240;28;20255;-88
2023/12/20 02:10:42;;;;;;;13.63;6.03;;;;;;;4.67;65.52;99317.31;5034417;28;20545;-88
2023/12/20 02:13:08;;;;;;;13.10;5.93;;;;;;;4.75;65.71;99316.22;5016177;28;20242;-89
2023/12/20 02:15:37;;;;;;;10.63;4.60;;;;;;;4.94;65.02;99304.47;5033875;28;20194;-88
2023/12/20 02:18:05;;;;;;;8.43;3.40;;;;;;;5.05;64.90;99305.91;5033323;28;20209;-88
2023/12/20 02:20:31;;;;;;;6.80;3.17;;;;;;;5.00;64.62;99307.78;5016606;28;20585;-88
2023/12/20 02:22:58;;;;;;;9.33;3.87;;;;;;;4.96;65.33;99301.81;5033138;28;20255;-89
2023/12/20 02:25:25;;;;;;;6.17;2.87;;;;;;;4.93;65.96;99302.75;5016209;28;20186;-88
2023/12/20 02:27:52;;;;;;;4.17;2.10;;;;;;;4.88;65.96;99295.97;5033622;28;20170;-88
2023/12/20 02:30:18;;;;;;;4.33;2.17;;;;;;;5.00;65.70;99302.59;5033619;28;20248;-88
2023/12/20 02:32:45;;;;;;;3.87;2.00;;;;;;;4.95;65.98;99297.53;5032986;28;20175;-88
2023/12/20 02:35:11;;;;;;;4.00;1.77;;;;;;;4.89;66.50;99292.50;5033776;28;20181;-88
2023/12/20 02:37:37;;;;;;;3.97;2.10;;;;;;;4.92;66.13;99292.41;5033388;28;20228;-88
2023/12/20 02:40:05;;;;;;;7.37;2.63;;;;;;;4.87;66.10;99286.50;5033274;28;20190;-88
2023/12/20 02:42:31;;;;;;;13.97;4.87;;;;;;;4.76;65.55;99285.94;5015853;28;20178;-88
2023/12/20 02:44:58;;;;;;;8.47;4.37;;;;;;;4.76;65.09;99283.34;5033605;28;20195;-88
2023/12/20 02:47:25;;;;;;;9.77;3.70;;;;;;;4.88;65.40;99273.47;5032678;28;20585;-88
2023/12/20 02:49:52;;;;;;;8.93;4.57;;;;;;;4.96;64.81;99271.50;5033567;28;20279;-88
2023/12/20 02:52:19;;;;;;;11.07;4.77;;;;;;;4.86;64.63;99266.59;5015916;28;20504;-87
2023/12/20 02:54:46;;;;;;;6.47;3.80;;;;;;;4.79;64.39;99267.69;5015460;28;20180;-88
2023/12/20 02:57:12;;;;;;;5.47;2.50;;;;;;;4.69;65.31;99263.63;5033136;28;20202;-88
2023/12/20 02:59:39;;;;;;;7.27;3.13;;;;;;;4.55;65.92;99263.13;5015777;28;20223;-88
2023/12/20 03:02:05;;;;;;;4.97;2.23;;;;;;;4.45;66.83;99259.09;5033154;28;20189;-88
2023/12/20 03:04:32;;;;;;;5.77;2.47;;;;;;;4.46;67.48;99260.78;5033119;28;20650;-88
2023/12/20 03:06:58;;;;;;;4.87;1.70;;;;;;;4.50;67.74;99252.03;5015815;28;20213;-88
2023/12/20 03:09:25;;;;;;;4.40;1.97;;;;;;;4.56;67.96;99238.91;5033642;28;20193;-88
2023/12/20 03:11:52;;;;;;;3.50;1.73;;;;;;;4.52;68.49;99237.25;5035291;28;20178;-88
2023/12/20 03:14:19;;;;;;;2.97;1.47;;;;;;;4.51;68.70;99238.16;5019543;28;20203;-88
2023/12/20 03:16:50;;;;;;;5.23;1.53;;;;;;;4.67;68.54;99235.09;5019886;28;20299;-88
2023/12/20 03:19:18;;;;;;;5.03;2.17;;;;;;;4.66;68.61;99237.75;5037103;28;20212;-88
2023/12/20 03:21:45;;;;;;;4.13;1.77;;;;;;;4.74;69.08;99241.00;5019454;28;20219;-88
2023/12/20 03:24:12;;;;;;;3.27;1.50;;;;;;;4.88;68.77;99234.50;5019850;28;20602;-88
2023/12/20 03:26:39;;;;;;;3.53;1.50;;;;;;;4.83;68.94;99243.31;5018855;28;20205;-87
2023/12/20 03:29:05;;;;;;;4.07;1.53;;;;;;;4.66;69.18;99240.34;5019769;28;20181;-87
2023/12/20 03:31:32;;;;;;;2.67;1.43;;;;;;;4.60;69.65;99235.31;5036868;28;20582;-87
2023/12/20 03:33:59;;;;;;;3.90;1.27;;;;;;;4.66;69.59;99232.56;5019312;28;20634;-87
2023/12/20 03:36:25;;;;;;;1.83;1.00;;;;;;;4.73;69.25;99234.09;5020205;28;20516;-87
2023/12/20 03:38:52;;;;;;;2.63;1.27;;;;;;;4.81;69.53;99234.72;5019562;28;20198;-87
2023/12/20 03:41:18;;;;;;;2.87;1.70;;;;;;;4.67;69.64;99224.72;5036959;28;20183;-87
2023/12/20 03:43:45;;;;;;;1.90;1.20;;;;;;;4.62;69.84;99221.41;5036643;28;20648;-88
2023/12/20 03:46:12;;;;;;;3.70;1.50;;;;;;;4.66;69.72;99216.97;5036899;28;20204;-88
2023/12/20 03:48:38;;;;;;;2.67;1.63;;;;;;;4.75;69.37;99214.97;5019565;28;20207;-87
2023/12/20 03:51:05;;;;;;;3.33;1.57;;;;;;;4.74;69.88;99218.44;5018422;28;20186;-87
2023/12/20 03:53:32;;;;;;;4.33;2.10;;;;;;;4.84;69.41;99222.53;5036772;28;20177;-87
2023/12/20 03:55:59;;;;;;;3.97;1.90;;;;;;;4.95;69.56;99220.44;5019333;28;20189;-87
2023/12/20 03:58:26;;;;;;;3.83;1.70;;;;;;;5.00;68.86;99214.28;5019986;28;20206;-87
2023/12/20 04:00:52;;;;;;;4.60;2.60;;;;;;;5.00;68.58;99216.88;5037167;28;20236;-87
2023/12/20 04:03:19;;;;;;;4.30;2.20;;;;;;;5.03;68.10;99217.66;5018901;28;20199;-87
2023/12/20 04:05:45;;;;;;;7.17;3.17;;;;;;;5.04;68.23;99218.47;5018760;28;20189;-87
2023/12/20 04:08:12;;;;;;;5.57;3.07;;;;;;;4.96;67.91;99211.78;5018816;28;20175;-87
2023/12/20 04:10:39;;;;;;;4.80;2.87;;;;;;;4.95;68.40;99209.22;5019569;28;20531;-88
2023/12/20 04:13:06;;;;;;;7.60;3.00;;;;;;;4.90;68.65;99219.72;5018509;28;20236;-87
2023/12/20 04:15:32;;;;;;;5.33;2.63;;;;;;;5.03;69.01;99219.41;5018652;28;20197;-88
2023/12/20 04:17:59;;;;;;;5.60;2.63;;;;;;;5.18;69.03;99211.16;5018324;28;20202;-88
2023/12/20 04:20:26;;;;;;;3.63;1.80;;;;;;;5.15;69.21;99212.09;5018894;28;20223;-88
2023/12/20 04:22:52;;;;;;;4.37;2.00;;;;;;;5.13;68.74;99211.28;5017636;28;20208;-87
2023/12/20 04:25:19;;;;;;;4.20;2.13;;;;;;;4.94;69.18;99212.72;5018176;28;20174;-87
2023/12/20 04:27:45;;;;;;;3.07;1.40;;;;;;;4.83;69.42;99214.75;5018494;28;20177;-87
2023/12/20 04:30:12;;;;;;;4.60;1.70;;;;;;;4.78;70.00;99212.28;5018323;28;20188;-88
2023/12/20 04:32:39;;;;;;;4.17;1.80;;;;;;;4.97;69.54;99210.03;5035801;28;20265;-87
2023/12/20 04:35:06;;;;;;;3.33;1.17;;;;;;;5.03;70.03;99212.47;5018562;28;20206;-88
2023/12/20 04:37:32;;;;;;;3.53;1.37;;;;;;;5.03;69.47;99216.78;5035898;28;20239;-87
2023/12/20 04:39:59;;;;;;;4.83;1.80;;;;;;;4.90;69.59;99213.72;5035655;28;20190;-87
2023/12/20 04:42:25;;;;;;;3.43;1.63;;;;;;;4.79;69.56;99207.97;5035904;28;20528;-87
2023/12/20 04:44:52;;;;;;;4.17;1.77;;;;;;;4.92;69.74;99194.59;5018175;28;20174;-87
2023/12/20 04:47:19;;;;;;;3.93;1.90;;;;;;;5.06;69.52;99203.72;5017706;28;20182;-87
2023/12/20 04:49:45;;;;;;;2.93;1.20;;;;;;;5.06;68.74;99206.31;5035506;28;20647;-87
2023/12/20 04:52:12;;;;;;;5.80;2.07;;;;;;;4.90;69.20;99195.53;5018021;28;20182;-88
2023/12/20 04:54:39;;;;;;;4.87;2.07;;;;;;;4.92;69.41;99193.72;5017737;28;20624;-88
2023/12/20 04:57:05;;;;;;;4.23;1.87;;;;;;;5.05;68.66;99191.63;5017751;28;20274;-87
2023/12/20 04:59:31;;;;;;;4.50;2.00;;;;;;;5.16;68.80;99190.41;5034959;28;20259;-88
2023/12/20 05:01:57;;;;;;;3.60;1.57;;;;;;;5.23;68.17;99181.53;5035250;28;20592;-88
2023/12/20 05:04:22;;;;;;;4.27;1.70;;;;;;;5.14;68.34;99178.34;5016896;28;20291;-88
2023/12/20 05:06:49;;;;;;;5.27;2.37;;;;;;;4.96;68.55;99167.63;5034853;28;20254;-87
2023/12/20 05:09:15;;;;;;;5.37;2.97;;;;;;;4.97;68.61;99168.47;5034444;28;20187;-87
2023/12/20 05:11:40;;;;;;;3.37;1.87;;;;;;;4.90;68.72;99164.38;5016349;28;20178;-87
2023/12/20 05:14:05;;;;;;;3.93;1.80;;;;;;;4.79;68.98;99172.47;5017865;28;20201;-88
2023/12/20 05:16:31;;;;;;;5.87;1.40;;;;;;;4.83;68.84;99173.22;5034964;28;20259;-88
2023/12/20 05:18:56;;;;;;;3.07;1.70;;;;;;;4.95;69.10;99189.28;5035106;28;20209;-88
2023/12/20 05:21:22;;;;;;;3.30;1.60;;;;;;;4.98;68.52;99183.13;5034256;28;20192;-88
2023/12/20 05:23:47;;;;;;;2.77;1.30;;;;;;;4.87;68.41;99180.03;5034803;28;20534;-88
2023/12/20 05:26:12;;;;;;;3.07;1.40;;;;;;;4.76;68.87;99174.28;5035028;28;20641;-88
2023/12/20 05:28:38;;;;;;;2.73;1.33;;;;;;;4.69;69.13;99180.56;5034141;28;20184;-88
2023/12/20 05:31:03;;;;;;;4.33;1.30;;;;;;;4.79;69.25;99174.19;5034681;28;20242;-88
2023/12/20 05:33:29;;;;;;;3.83;1.50;;;;;;;4.88;68.80;99168.72;5034610;28;20177;-88
2023/12/20 05:35:54;;;;;;;3.03;1.67;;;;;;;4.88;68.17;99158.34;5034086;28;20648;-88
2023/12/20 05:38:20;;;;;;;4.23;1.60;;;;;;;4.90;68.28;99156.56;5033833;28;20201;-88
2023/12/20 05:40:45;;;;;;;3.87;2.00;;;;;;;4.90;67.67;99157.41;5034733;28;20189;-88
2023/12/20 05:43:10;;;;;;;4.17;2.37;;;;;;;4.79;67.07;99156.88;5016989;28;20175;-87
2023/12/20 05:45:36;;;;;;;7.13;2.70;;;;;;;4.74;66.26;99155.31;5033892;28;20662;-88
2023/12/20 05:48:01;;;;;;;14.77;6.80;;;;;;;4.68;66.31;99163.25;5034361;28;20176;-88
2023/12/20 05:50:27;;;;;;;10.90;5.67;;;;;;;4.67;66.11;99159.81;5034307;28;20180;-88
2023/12/20 05:52:52;;;;;;;11.67;5.50;;;;;;;4.66;65.46;99152.09;5034547;28;20679;-87
2023/12/20 05:55:17;;;;;;;9.90;4.63;;;;;;;4.59;64.89;99142.75;5034472;28;20187;-88
2023/12/20 05:57:43;;;;;;;9.70;5.50;;;;;;;4.57;64.94;99149.72;5033802;28;20594;-87
2023/12/20 06:00:09;;;;;;;12.87;6.87;;;;;;;4.55;64.63;99139.41;5017071;28;20181;-88
2023/12/20 06:02:36;;;;;;;10.33;4.23;;;;;;;4.59;64.39;99141.00;5016458;28;20292;-88
2023/12/20 06:05:02;;;;;;;10.30;4.63;;;;;;;4.62;64.45;99143.53;5033293;28;20214;-87
2023/12/20 06:07:28;;;;;;;15.50;6.53;;;;;;;4.65;64.22;99147.78;5016571;28;20242;-88
2023/12/20 06:09:53;;;;;;;21.30;8.93;;;;;;;4.64;64.30;99143.50;5016811;28;20632;-88
2023/12/20 06:12:18;;;;;;;17.67;10.20;;;;;;;4.68;63.97;99137.31;5033782;28;20558;-87
2023/12/20 06:14:44;;;;;;;24.83;10.10;;;;;;;4.70;63.62;99138.97;5017094;28;20191;-87
2023/12/20 06:17:09;;;;;;;17.37;8.77;;;;;;;4.69;63.71;99139.84;5016379;28;20645;-87
2023/12/20 06:19:35;;;;;;;16.87;8.10;;;;;;;4.67;63.79;99130.41;5016391;28;20621;-87
2023/12/20 06:22:00;;;;;;;17.87;9.00;;;;;;;4.56;63.70;99137.66;5015599;28;20182;-88
2023/12/20 06:24:27;;;;;;;14.63;8.10;;;;;;;4.55;64.10;99138.56;5034003;28;20192;-87
2023/12/20 06:26:54;;;;;;;11.57;6.03;;;;;;;4.58;64.40;99141.06;5033382;28;20640;-87
2023/12/20 06:29:19;;;;;;;12.10;6.93;;;;;;;4.61;64.64;99138.38;5016619;28;20325;-86
2023/12/20 06:31:45;;;;;;;11.03;6.17;;;;;;;4.74;64.52;99140.56;5033594;28;20689;-87
2023/12/20 06:34:10;;;;;;;7.27;4.37;;;;;;;5.51;66.17;99125.19;5016183;28;20186;-86
2023/12/20 06:36:36;;;;;;;8.90;5.07;;;;;;;7.07;65.70;99114.41;5034080;28;20186;-86
2023/12/20 06:39:01;;;;;;;11.77;5.47;;;;;;;8.49;60.74;99107.59;5033413;28;20574;-87
2023/12/20 06:41:27;;;;;;;9.00;6.03;;;;;;;9.55;56.48;99097.34;5016392;28;20662;-86
2023/12/20 06:43:53;;;;;;;9.97;4.40;;;;;;;10.81;52.54;99107.38;5016006;28;20551;-86
2023/12/20 06:46:18;;;;;;;7.87;3.70;;;;;;;11.82;48.34;99095.59;5015625;28;20186;-87
2023/12/20 06:48:44;;;;;;;5.53;3.33;;;;;;;12.00;46.11;99099.75;5033248;28;20175;-87
2023/12/20 06:51:15;;;;;;;5.10;2.97;;;;;;;11.71;45.21;99099.66;5033622;28;20177;-87
2023/12/20 06:53:40;;;;;;;11.43;3.63;;;;;;;11.49;45.57;99099.19;5015955;28;20262;-87
2023/12/20 06:56:07;;;;;;;7.90;3.73;;;;;;;11.34;45.80;99097.44;5033255;28;20243;-87
2023/12/20 06:58:32;;;;;;;12.27;5.00;;;;;;;11.14;46.13;99105.53;5015369;28;20206;-87
2023/12/20 07:00:58;;;;;;;6.23;3.60;;;;;;;10.70;46.93;99109.72;5033494;28;20188;-87
2023/12/20 07:03:23;;;;;;;13.40;7.23;;;;;;;10.25;48.07;99111.22;5033186;28;20583;-87
2023/12/20 07:05:49;;;;;;;16.97;9.43;;;;;;;10.15;49.10;99107.38;5015787;28;20212;-87
2023/12/20 07:08:15;;;;;;;18.47;8.97;;;;;;;10.21;49.96;99098.38;5032608;28;20174;-87
2023/12/20 07:10:41;;;;;;;24.47;10.97;;;;;;;10.35;49.79;99094.09;5033459;28;20261;-87
2023/12/20 07:13:07;;;;;;;24.40;10.97;;;;;;;10.37;49.49;99092.25;5032989;28;20204;-87
2023/12/20 07:15:33;;;;;;;21.17;10.50;;;;;;;10.25;49.11;99084.16;5033632;28;20200;-87
2023/12/20 07:18:00;;;;;;;29.20;11.60;;;;;;;10.05;49.39;99089.56;5032973;28;20198;-88
2023/12/20 07:20:26;;;;;;;27.93;10.47;;;;;;;9.73;49.57;99081.56;5015600;28;20641;-87
2023/12/20 07:22:51;;;;;;;24.27;10.23;;;;;;;9.48;50.40;99080.25;5032434;28;20178;-87
2023/12/20 07:25:16;;;;;;;26.10;9.17;;;;;;;9.28;51.50;99086.44;5033498;28;20196;-87
2023/12/20 07:27:42;;;;;;;21.70;10.33;;;;;;;9.08;52.10;99082.16;5032594;28;20178;-88
2023/12/20 07:30:08;;;;;;;34.93;14.70;;;;;;;8.86;52.67;99081.47;5033424;28;20194;-88
2023/12/20 07:32:33;;;;;;;45.00;17.13;;;;;;;8.62;53.74;99086.06;5032531;28;20256;-87
2023/12/20 07:34:59;;;;;;;60.47;22.07;;;;;;;8.50;54.61;99089.22;5033135;28;20260;-87
2023/12/20 07:37:24;;;;;;;49.87;20.53;;;;;;;8.32;55.45;99086.59;5032295;28;20736;-87
2023/12/20 07:39:49;;;;;;;41.10;19.27;;;;;;;8.16;56.13;99082.91;5015534;28;20189;-87
2023/12/20 07:42:15;;;;;;;40.00;18.43;;;;;;;8.06;57.22;99087.69;5015281;28;20235;-87
2023/12/20 07:44:41;;;;;;;79.63;29.23;;;;;;;8.07;58.32;99080.72;5015390;28;20178;-87
2023/12/20 07:47:06;;;;;;;76.67;30.07;;;;;;;8.10;57.57;99077.97;5032786;28;20274;-87
2023/12/20 07:49:32;;;;;;;59.27;26.20;;;;;;;8.07;58.22;99076.31;5015055;28;20277;-88
2023/12/20 07:51:57;;;;;;;46.93;22.07;;;;;;;8.11;58.67;99079.66;5032285;28;20194;-87
2023/12/20 07:54:22;;;;;;;55.83;25.13;;;;;;;8.21;59.66;99073.97;5032972;28;20669;-87
2023/12/20 07:56:49;;;;;;;52.93;21.23;;;;;;;8.37;59.64;99074.16;5032317;28;20191;-88
2023/12/20 07:59:14;;;;;;;49.60;22.40;;;;;;;8.41;58.32;99062.69;5017742;28;20215;-87
2023/12/20 08:01:40;;;;;;;47.70;20.03;;;;;;;8.49;58.46;99065.81;5036420;28;20178;-87
2023/12/20 08:04:05;;;;;;;42.50;19.73;;;;;;;8.50;58.68;99065.72;5018908;28;20203;-87
2023/12/20 08:06:31;;;;;;;50.73;22.80;;;;;;;8.62;58.78;99066.94;5035652;28;20182;-87
2023/12/20 08:08:57;;;;;;;43.93;20.70;;;;;;;8.81;59.73;99057.31;5018850;28;20181;-87
2023/12/20 08:11:22;;;;;;;41.30;22.00;;;;;;;8.93;58.86;99053.28;5018296;28;20185;-87
2023/12/20 08:13:48;;;;;;;56.97;25.40;;;;;;;9.04;58.43;99044.00;5036033;28;20637;-87
2023/12/20 08:16:15;;;;;;;50.77;20.77;;;;;;;9.15;58.82;99053.94;5036126;28;20179;-88
2023/12/20 08:18:40;;;;;;;66.27;26.13;;;;;;;9.30;58.47;99041.91;5018635;28;20244;-88
2023/12/20 08:21:08;;;;;;;48.43;23.07;;;;;;;9.47;58.83;99044.53;5018463;28;20212;-87
2023/12/20 08:23:34;;;;;;;43.40;19.63;;;;;;;9.56;57.75;99042.31;5018562;28;20189;-88
2023/12/20 08:26:06;;;;;;;44.30;21.77;;;;;;;9.70;56.65;99039.84;5035510;28;20186;-88
2023/12/20 08:28:32;;;;;;;53.90;21.67;;;;;;;9.83;55.94;99040.06;5036244;28;20170;-88
2023/12/20 08:30:57;;;;;;;51.67;20.90;;;;;;;9.93;55.39;99038.69;5036165;28;20184;-88
2023/12/20 08:33:23;;;;;;;43.40;18.27;;;;;;;10.02;55.28;99027.72;5018379;28;20185;-88
2023/12/20 08:35:48;;;;;;;35.07;18.00;;;;;;;10.14;54.32;99031.53;5018363;28;20178;-88
2023/12/20 08:38:14;;;;;;;31.83;15.80;;;;;;;10.17;54.34;99020.88;5035668;28;20198;-88
2023/12/20 08:40:39;;;;;;;35.80;16.00;;;;;;;10.22;54.00;99017.06;5035691;28;20653;-88
2023/12/20 08:43:05;;;;;;;31.03;14.07;;;;;;;10.35;54.46;99015.50;4951072;28;20185;-88
2023/12/20 08:45:30;;;;;;;22.77;11.60;;;;;;;10.47;54.25;99007.00;5035545;28;20182;-88
2023/12/20 08:47:56;;;;;;;37.03;16.03;;;;;;;10.61;53.74;99002.78;5018141;28;20184;-87
2023/12/20 08:50:21;;;;;;;36.13;15.57;;;;;;;10.75;53.08;98995.84;5018299;28;20181;-88
2023/12/20 08:52:46;;;;;;;26.90;14.40;;;;;;;10.85;52.75;98997.00;5018022;28;20659;-88
2023/12/20 08:55:12;;;;;;;36.60;17.27;;;;;;;10.98;52.69;98991.91;5017704;28;20186;-89
2023/12/20 08:57:38;;;;;;;52.20;22.93;;;;;;;11.03;52.10;98984.66;5035522;28;20256;-89
2023/12/20 09:00:04;;;;;;;36.83;17.93;;;;;;;11.07;52.00;98976.53;5035300;28;20189;-89
2023/12/20 09:02:29;;;;;;;28.97;15.90;;;;;;;11.15;51.67;98970.84;5035254;28;20187;-89
2023/12/20 09:04:55;;;;;;;29.83;14.40;;;;;;;11.27;51.58;98971.91;5034532;28;20175;-89
2023/12/20 09:07:25;;;;;;;30.23;13.90;;;;;;;11.41;51.45;98969.31;5035209;28;20175;-88
2023/12/20 09:09:51;;;;;;;34.10;15.03;;;;;;;11.60;51.48;98955.03;5016790;28;20213;-89
2023/12/20 09:12:20;;;;;;;30.10;16.37;;;;;;;11.90;51.51;98941.00;5034950;28;20214;-89
2023/12/20 09:14:50;;;;;;;35.57;17.03;;;;;;;12.04;50.29;98933.97;5034905;28;20545;-89
2023/12/20 09:17:16;;;;;;;33.17;17.37;;;;;;;12.17;49.79;98928.81;5034683;28;20198;-89
2023/12/20 09:19:43;;;;;;;39.03;18.93;;;;;;;12.29;49.70;98930.66;5017480;28;20250;-89
2023/12/20 09:22:09;;;;;;;39.47;18.27;;;;;;;12.43;49.20;98916.66;5017600;28;20187;-89
2023/12/20 09:24:35;;;;;;;40.33;17.80;;;;;;;12.41;48.78;98911.50;5018121;28;20188;-89
2023/12/20 09:27:00;;;;;;;38.17;18.67;;;;;;;12.42;48.83;98907.09;5017110;28;20654;-90
2023/12/20 09:29:26;;;;;;;37.27;18.07;;;;;;;12.42;48.95;98905.28;5034758;28;20267;-89
2023/12/20 09:31:51;;;;;;;31.30;16.43;;;;;;;12.50;48.55;98899.56;5034198;28;20193;-89
2023/12/20 09:34:17;;;;;;;32.97;16.37;;;;;;;12.53;48.69;98897.56;5035048;28;20181;-89
2023/12/20 09:36:46;;;;;;;35.47;17.23;;;;;;;12.68;48.94;98891.31;5017272;28;20191;-89
2023/12/20 09:39:19;;;;;;;36.30;18.63;;;;;;;12.72;48.30;98887.56;5017087;28;20250;-89
2023/12/20 09:41:49;;;;;;;35.73;19.07;;;;;;;12.83;48.72;98887.69;5034108;28;20170;-89
2023/12/20 09:44:17;;;;;;;36.63;17.83;;;;;;;12.94;48.68;98874.66;5016993;28;20180;-90
2023/12/20 09:46:45;;;;;;;37.60;19.97;;;;;;;13.07;48.59;98868.63;5034245;28;20663;-89
2023/12/20 09:49:12;;;;;;;40.17;19.43;;;;;;;13.24;47.88;98866.56;5034394;28;20185;-90
2023/12/20 09:51:37;;;;;;;42.77;23.07;;;;;;;13.33;47.12;98862.47;5016927;28;20180;-90
2023/12/20 09:54:04;;;;;;;42.67;21.13;;;;;;;13.46;46.91;98855.41;5034539;28;20180;-89
2023/12/20 09:56:30;;;;;;;38.40;18.97;;;;;;;13.60;46.65;98850.00;5016588;28;20271;-90
2023/12/20 09:58:56;;;;;;;41.10;21.63;;;;;;;13.66;46.26;98841.69;5016809;28;20209;-90
2023/12/20 10:01:22;;;;;;;43.77;23.13;;;;;;;13.73;46.20;98842.13;5017132;28;20178;-90
2023/12/20 10:03:47;;;;;;;50.73;24.73;;;;;;;13.75;46.13;98840.22;5017086;28;20183;-90
2023/12/20 10:06:13;;;;;;;47.67;25.03;;;;;;;13.75;45.57;98834.94;5016793;28;20185;-91
2023/12/20 10:08:39;;;;;;;52.93;25.47;;;;;;;13.76;45.84;98829.56;5033945;28;20244;-90
2023/12/20 10:11:05;;;;;;;48.50;27.00;;;;;;;13.89;46.33;98821.63;5033400;28;20179;-90
2023/12/20 10:13:30;;;;;;;46.83;23.83;;;;;;;13.88;45.13;98815.53;5033910;28;20189;-90
2023/12/20 10:15:57;;;;;;;47.97;25.80;;;;;;;13.98;46.04;98811.28;5034198;28;20189;-90
2023/12/20 10:18:23;;;;;;;37.03;19.13;;;;;;;13.77;45.52;98814.59;5016535;28;20285;-91
2023/12/20 10:20:49;;;;;;;47.27;24.00;;;;;;;13.93;46.00;98805.50;5033219;28;20218;-91
2023/12/20 10:23:16;;;;;;;46.73;23.37;;;;;;;14.14;45.29;98801.34;5016697;28;20204;-90
2023/12/20 10:25:41;;;;;;;39.90;20.77;;;;;;;14.13;45.56;98797.00;5016537;28;20609;-90
2023/12/20 10:28:11;;;;;;;34.33;19.53;;;;;;;14.18;44.74;98792.25;5016499;28;20182;-91
2023/12/20 10:30:37;;;;;;;25.97;15.80;;;;;;;14.12;44.63;98794.50;5015806;28;20182;-91
2023/12/20 10:33:02;;;;;;;29.00;15.70;;;;;;;14.09;45.24;98790.28;5015737;28;20247;-91
2023/12/20 10:35:28;;;;;;;28.57;15.13;;;;;;;14.21;45.51;98779.78;5016320;28;20187;-91
2023/12/20 10:37:58;;;;;;;24.93;12.80;;;;;;;14.36;45.40;98787.44;5033840;28;20306;-92
2023/12/20 10:40:27;;;;;;;24.17;12.87;;;;;;;14.55;44.63;98773.75;5034107;28;20236;-92
2023/12/20 10:42:53;;;;;;;21.60;11.23;;;;;;;14.62;44.21;98769.72;5016265;28;20277;-91
2023/12/20 10:45:19;;;;;;;20.43;10.73;;;;;;;14.73;43.33;98767.09;5016076;28;20274;-93
2023/12/20 10:47:49;;;;;;;21.70;10.63;;;;;;;14.47;43.98;98763.78;5016269;28;20181;-91
2023/12/20 10:50:15;;;;;;;17.97;10.33;;;;;;;14.12;44.36;98776.88;5016281;28;20623;-94
2023/12/20 10:52:42;;;;;;;22.13;9.93;;;;;;;13.75;45.15;98769.94;5016302;28;20213;-91
2023/12/20 10:55:08;;;;;;;16.73;7.47;;;;;;;13.60;45.50;98765.75;5016362;28;20181;-92
2023/12/20 10:57:36;;;;;;;14.73;7.23;;;;;;;13.44;45.08;98760.72;5015811;28;20283;-93
2023/12/20 11:00:05;;;;;;;15.90;7.13;;;;;;;13.31;45.53;98751.19;5033532;28;20192;-92
2023/12/20 11:02:33;;;;;;;12.63;6.20;;;;;;;13.28;45.04;98746.13;5016338;28;20188;-91
2023/12/20 11:05:04;;;;;;;13.10;6.87;;;;;;;13.19;46.10;98752.00;5015601;28;20242;-92
2023/12/20 11:07:34;;;;;;;12.90;6.53;;;;;;;13.33;46.07;98742.22;5016202;28;20187;-92
2023/12/20 11:10:13;;;;;;;15.57;6.87;;;;;;;13.54;45.28;98735.44;5016295;28;20181;-92
2023/12/20 11:12:48;;;;;;;13.73;6.73;;;;;;;13.71;44.60;98742.13;5016123;28;20296;-93
2023/12/20 11:15:16;;;;;;;10.07;5.60;;;;;;;13.76;44.81;98740.00;5016321;28;20211;-91
2023/12/20 11:17:46;;;;;;;15.13;6.23;;;;;;;13.76;44.76;98733.88;5015541;28;20266;-92
2023/12/20 11:20:12;;;;;;;12.53;6.13;;;;;;;13.78;43.95;98724.94;5016741;28;20192;-91
2023/12/20 11:22:39;;;;;;;11.53;5.83;;;;;;;13.49;44.14;98723.56;5016353;28;20186;-92
2023/12/20 11:25:09;;;;;;;9.70;6.10;;;;;;;13.51;44.37;98713.75;5033255;28;20633;-92
2023/12/20 11:27:36;;;;;;;12.60;5.93;;;;;;;13.39;44.25;98707.53;5015134;28;20190;-93